sensor_id;sensor_type;location;lat;lon;timestamp;P1;durP1;ratioP1;P2;durP2;ratioP2
29688;SDS011;16600;47.444;8.334;2022-12-20T00:01:56;52.33;;;32.58;;
29688;SDS011;16600;47.444;8.334;2022-12-20T00:04:56;57.03;;;33.53;;
29688;SDS011;16600;47.444;8.334;2022-12-20T00:07:24;45.65;;;29.52;;
29688;SDS011;16600;47.444;8.334;2022-12-20T00:09:53;56.03;;;34.50;;
29688;SDS011;16600;47.444;8.334;2022-12-20T00:12:25;48.47;;;32.22;;
29688;SDS011;16600;47.444;8.334;2022-12-20T00:14:57;56.97;;;34.45;;
29688;SDS011;16600;47.444;8.334;2022-12-20T00:17:29;54.33;;;30.02;;
29688;SDS011;16600;47.444;8.334;2022-12-20T00:20:02;62.05;;;37.70;;
29688;SDS011;16600;47.444;8.334;2022-12-20T00:22:32;70.75;;;37.58;;
29688;SDS011;16600;47.444;8.334;2022-12-20T00:25:00;59.00;;;35.65;;
29688;SDS011;16600;47.444;8.334;2022-12-20T00:27:26;79.65;;;41.58;;
29688;SDS011;16600;47.444;8.334;2022-12-20T00:30:17;83.85;;;43.38;;
29688;SDS011;16600;47.444;8.334;2022-12-20T00:32:47;79.75;;;43.53;;
29688;SDS011;16600;47.444;8.334;2022-12-20T00:35:21;78.88;;;41.80;;
29688;SDS011;16600;47.444;8.334;2022-12-20T00:37:57;64.93;;;39.35;;
29688;SDS011;16600;47.444;8.334;2022-12-20T00:40:32;59.90;;;37.38;;
29688;SDS011;16600;47.444;8.334;2022-12-20T00:43:07;56.83;;;34.00;;
29688;SDS011;16600;47.444;8.334;2022-12-20T00:45:40;65.95;;;37.45;;
29688;SDS011;16600;47.444;8.334;2022-12-20T00:48:35;81.45;;;43.88;;
29688;SDS011;16600;47.444;8.334;2022-12-20T00:51:14;81.90;;;45.63;;
29688;SDS011;16600;47.444;8.334;2022-12-20T00:53:41;85.20;;;45.90;;
29688;SDS011;16600;47.444;8.334;2022-12-20T00:56:20;83.93;;;47.35;;
29688;SDS011;16600;47.444;8.334;2022-12-20T00:59:19;81.50;;;45.58;;
29688;SDS011;16600;47.444;8.334;2022-12-20T01:01:52;61.80;;;37.55;;
29688;SDS011;16600;47.444;8.334;2022-12-20T01:04:24;72.80;;;39.75;;
29688;SDS011;16600;47.444;8.334;2022-12-20T01:06:57;69.95;;;40.33;;
29688;SDS011;16600;47.444;8.334;2022-12-20T01:09:32;93.82;;;45.42;;
29688;SDS011;16600;47.444;8.334;2022-12-20T01:12:09;90.20;;;45.90;;
29688;SDS011;16600;47.444;8.334;2022-12-20T01:14:40;93.22;;;46.00;;
29688;SDS011;16600;47.444;8.334;2022-12-20T01:17:13;62.67;;;39.00;;
29688;SDS011;16600;47.444;8.334;2022-12-20T01:19:40;63.10;;;39.58;;
29688;SDS011;16600;47.444;8.334;2022-12-20T01:22:09;73.75;;;41.08;;
29688;SDS011;16600;47.444;8.334;2022-12-20T01:24:43;68.60;;;39.08;;
29688;SDS011;16600;47.444;8.334;2022-12-20T01:27:11;80.43;;;40.05;;
29688;SDS011;16600;47.444;8.334;2022-12-20T01:29:40;67.75;;;39.95;;
29688;SDS011;16600;47.444;8.334;2022-12-20T01:32:15;66.40;;;40.03;;
29688;SDS011;16600;47.444;8.334;2022-12-20T01:35:04;81.07;;;42.30;;
29688;SDS011;16600;47.444;8.334;2022-12-20T01:37:34;80.38;;;41.58;;
29688;SDS011;16600;47.444;8.334;2022-12-20T01:40:07;79.70;;;43.72;;
29688;SDS011;16600;47.444;8.334;2022-12-20T01:42:36;88.70;;;44.70;;
29688;SDS011;16600;47.444;8.334;2022-12-20T01:45:06;75.47;;;40.70;;
29688;SDS011;16600;47.444;8.334;2022-12-20T01:47:38;76.75;;;42.95;;
29688;SDS011;16600;47.444;8.334;2022-12-20T01:50:07;75.20;;;41.15;;
29688;SDS011;16600;47.444;8.334;2022-12-20T01:52:34;71.20;;;40.35;;
29688;SDS011;16600;47.444;8.334;2022-12-20T01:55:04;79.35;;;41.03;;
29688;SDS011;16600;47.444;8.334;2022-12-20T01:57:41;75.38;;;41.65;;
29688;SDS011;16600;47.444;8.334;2022-12-20T02:00:15;83.22;;;44.63;;
29688;SDS011;16600;47.444;8.334;2022-12-20T02:02:47;59.55;;;34.35;;
29688;SDS011;16600;47.444;8.334;2022-12-20T02:05:18;89.40;;;42.05;;
29688;SDS011;16600;47.444;8.334;2022-12-20T02:07:48;73.70;;;40.45;;
29688;SDS011;16600;47.444;8.334;2022-12-20T02:10:26;57.50;;;36.70;;
29688;SDS011;16600;47.444;8.334;2022-12-20T02:13:06;57.42;;;35.20;;
29688;SDS011;16600;47.444;8.334;2022-12-20T02:15:51;57.78;;;34.25;;
29688;SDS011;16600;47.444;8.334;2022-12-20T02:18:30;78.22;;;40.97;;
29688;SDS011;16600;47.444;8.334;2022-12-20T02:26:30;77.90;;;44.05;;
29688;SDS011;16600;47.444;8.334;2022-12-20T02:31:52;76.10;;;40.33;;
29688;SDS011;16600;47.444;8.334;2022-12-20T02:34:22;74.80;;;42.03;;
29688;SDS011;16600;47.444;8.334;2022-12-20T02:36:54;82.55;;;43.35;;
29688;SDS011;16600;47.444;8.334;2022-12-20T02:39:31;83.15;;;43.88;;
29688;SDS011;16600;47.444;8.334;2022-12-20T02:42:17;88.35;;;43.45;;
29688;SDS011;16600;47.444;8.334;2022-12-20T02:44:53;76.28;;;40.97;;
29688;SDS011;16600;47.444;8.334;2022-12-20T02:53:04;83.57;;;43.75;;
29688;SDS011;16600;47.444;8.334;2022-12-20T02:58:32;68.63;;;40.00;;
29688;SDS011;16600;47.444;8.334;2022-12-20T03:01:06;66.55;;;37.47;;
29688;SDS011;16600;47.444;8.334;2022-12-20T03:03:38;81.85;;;39.80;;
29688;SDS011;16600;47.444;8.334;2022-12-20T03:06:06;63.40;;;35.63;;
29688;SDS011;16600;47.444;8.334;2022-12-20T03:08:44;64.28;;;37.97;;
29688;SDS011;16600;47.444;8.334;2022-12-20T03:11:20;75.07;;;38.95;;
29688;SDS011;16600;47.444;8.334;2022-12-20T03:13:49;72.53;;;42.75;;
29688;SDS011;16600;47.444;8.334;2022-12-20T03:16:23;122.78;;;51.17;;
29688;SDS011;16600;47.444;8.334;2022-12-20T03:18:58;79.75;;;43.20;;
29688;SDS011;16600;47.444;8.334;2022-12-20T03:21:36;62.20;;;39.88;;
29688;SDS011;16600;47.444;8.334;2022-12-20T03:24:08;70.00;;;39.10;;
29688;SDS011;16600;47.444;8.334;2022-12-20T03:26:44;76.43;;;41.40;;
29688;SDS011;16600;47.444;8.334;2022-12-20T03:29:14;65.28;;;38.70;;
29688;SDS011;16600;47.444;8.334;2022-12-20T03:31:46;57.17;;;35.58;;
29688;SDS011;16600;47.444;8.334;2022-12-20T03:34:23;74.68;;;39.83;;
29688;SDS011;16600;47.444;8.334;2022-12-20T03:36:53;79.50;;;40.75;;
29688;SDS011;16600;47.444;8.334;2022-12-20T03:39:25;102.95;;;46.88;;
29688;SDS011;16600;47.444;8.334;2022-12-20T03:41:58;83.80;;;43.00;;
29688;SDS011;16600;47.444;8.334;2022-12-20T03:44:32;95.57;;;44.83;;
29688;SDS011;16600;47.444;8.334;2022-12-20T03:47:02;91.28;;;44.58;;
29688;SDS011;16600;47.444;8.334;2022-12-20T03:49:39;80.90;;;36.15;;
29688;SDS011;16600;47.444;8.334;2022-12-20T03:52:11;55.25;;;34.05;;
29688;SDS011;16600;47.444;8.334;2022-12-20T03:54:41;69.60;;;37.67;;
29688;SDS011;16600;47.444;8.334;2022-12-20T03:57:26;65.45;;;37.03;;
29688;SDS011;16600;47.444;8.334;2022-12-20T03:59:59;55.92;;;33.13;;
29688;SDS011;16600;47.444;8.334;2022-12-20T04:02:26;55.80;;;33.00;;
29688;SDS011;16600;47.444;8.334;2022-12-20T04:07:52;63.42;;;35.75;;
29688;SDS011;16600;47.444;8.334;2022-12-20T04:10:25;51.55;;;33.05;;
29688;SDS011;16600;47.444;8.334;2022-12-20T04:12:55;51.13;;;30.75;;
29688;SDS011;16600;47.444;8.334;2022-12-20T04:15:23;86.20;;;39.35;;
29688;SDS011;16600;47.444;8.334;2022-12-20T04:18:01;55.28;;;31.52;;
29688;SDS011;16600;47.444;8.334;2022-12-20T04:20:38;38.53;;;27.60;;
29688;SDS011;16600;47.444;8.334;2022-12-20T04:23:20;46.22;;;29.20;;
29688;SDS011;16600;47.444;8.334;2022-12-20T04:25:50;53.90;;;31.98;;
29688;SDS011;16600;47.444;8.334;2022-12-20T04:28:21;51.63;;;30.23;;
29688;SDS011;16600;47.444;8.334;2022-12-20T04:30:55;58.28;;;33.75;;
29688;SDS011;16600;47.444;8.334;2022-12-20T04:33:30;60.10;;;34.72;;
29688;SDS011;16600;47.444;8.334;2022-12-20T04:35:59;45.65;;;31.60;;
29688;SDS011;16600;47.444;8.334;2022-12-20T04:38:46;49.25;;;29.77;;
29688;SDS011;16600;47.444;8.334;2022-12-20T04:41:16;48.10;;;29.63;;
29688;SDS011;16600;47.444;8.334;2022-12-20T04:43:59;41.45;;;28.58;;
29688;SDS011;16600;47.444;8.334;2022-12-20T04:46:40;44.75;;;27.60;;
29688;SDS011;16600;47.444;8.334;2022-12-20T04:49:19;47.58;;;28.85;;
29688;SDS011;16600;47.444;8.334;2022-12-20T04:51:53;42.10;;;27.65;;
29688;SDS011;16600;47.444;8.334;2022-12-20T04:54:37;53.15;;;31.35;;
29688;SDS011;16600;47.444;8.334;2022-12-20T04:57:12;61.65;;;32.38;;
29688;SDS011;16600;47.444;8.334;2022-12-20T04:59:45;54.88;;;31.10;;
29688;SDS011;16600;47.444;8.334;2022-12-20T05:03:00;44.67;;;28.00;;
29688;SDS011;16600;47.444;8.334;2022-12-20T05:05:33;51.30;;;29.15;;
29688;SDS011;16600;47.444;8.334;2022-12-20T05:08:09;43.92;;;29.02;;
29688;SDS011;16600;47.444;8.334;2022-12-20T05:10:39;62.78;;;33.25;;
29688;SDS011;16600;47.444;8.334;2022-12-20T05:13:17;43.10;;;28.40;;
29688;SDS011;16600;47.444;8.334;2022-12-20T05:15:54;51.67;;;31.13;;
29688;SDS011;16600;47.444;8.334;2022-12-20T05:18:27;53.17;;;28.65;;
29688;SDS011;16600;47.444;8.334;2022-12-20T05:21:06;44.90;;;26.95;;
29688;SDS011;16600;47.444;8.334;2022-12-20T05:24:03;44.25;;;26.50;;
29688;SDS011;16600;47.444;8.334;2022-12-20T05:26:59;63.28;;;33.95;;
29688;SDS011;16600;47.444;8.334;2022-12-20T05:29:47;72.65;;;37.92;;
29688;SDS011;16600;47.444;8.334;2022-12-20T05:32:14;69.57;;;38.00;;
29688;SDS011;16600;47.444;8.334;2022-12-20T05:34:46;69.78;;;38.28;;
29688;SDS011;16600;47.444;8.334;2022-12-20T05:37:17;49.53;;;29.58;;
29688;SDS011;16600;47.444;8.334;2022-12-20T05:39:46;56.15;;;31.30;;
29688;SDS011;16600;47.444;8.334;2022-12-20T05:42:33;48.33;;;30.17;;
29688;SDS011;16600;47.444;8.334;2022-12-20T05:45:03;54.30;;;28.88;;
29688;SDS011;16600;47.444;8.334;2022-12-20T05:47:50;55.10;;;30.35;;
29688;SDS011;16600;47.444;8.334;2022-12-20T05:50:20;59.13;;;35.17;;
29688;SDS011;16600;47.444;8.334;2022-12-20T05:53:11;59.50;;;35.80;;
29688;SDS011;16600;47.444;8.334;2022-12-20T05:56:05;65.05;;;35.80;;
29688;SDS011;16600;47.444;8.334;2022-12-20T05:58:37;61.28;;;36.08;;
29688;SDS011;16600;47.444;8.334;2022-12-20T06:01:08;61.05;;;34.58;;
29688;SDS011;16600;47.444;8.334;2022-12-20T06:03:38;53.67;;;34.38;;
29688;SDS011;16600;47.444;8.334;2022-12-20T06:06:26;58.60;;;32.85;;
29688;SDS011;16600;47.444;8.334;2022-12-20T06:11:58;56.60;;;31.23;;
29688;SDS011;16600;47.444;8.334;2022-12-20T06:14:33;62.92;;;33.20;;
29688;SDS011;16600;47.444;8.334;2022-12-20T06:17:13;63.55;;;37.17;;
29688;SDS011;16600;47.444;8.334;2022-12-20T06:19:48;70.68;;;37.78;;
29688;SDS011;16600;47.444;8.334;2022-12-20T06:25:18;71.43;;;40.78;;
29688;SDS011;16600;47.444;8.334;2022-12-20T06:27:51;73.22;;;39.70;;
29688;SDS011;16600;47.444;8.334;2022-12-20T06:30:23;65.32;;;37.88;;
29688;SDS011;16600;47.444;8.334;2022-12-20T06:33:09;58.75;;;33.30;;
29688;SDS011;16600;47.444;8.334;2022-12-20T06:39:02;56.72;;;34.53;;
29688;SDS011;16600;47.444;8.334;2022-12-20T06:41:34;72.43;;;42.08;;
29688;SDS011;16600;47.444;8.334;2022-12-20T06:44:14;85.20;;;42.85;;
29688;SDS011;16600;47.444;8.334;2022-12-20T06:46:48;57.25;;;36.75;;
29688;SDS011;16600;47.444;8.334;2022-12-20T06:49:21;53.33;;;34.47;;
29688;SDS011;16600;47.444;8.334;2022-12-20T06:52:02;65.43;;;37.33;;
29688;SDS011;16600;47.444;8.334;2022-12-20T06:54:55;51.05;;;33.25;;
29688;SDS011;16600;47.444;8.334;2022-12-20T06:57:30;44.80;;;28.15;;
29688;SDS011;16600;47.444;8.334;2022-12-20T07:00:04;51.47;;;29.27;;
29688;SDS011;16600;47.444;8.334;2022-12-20T07:02:38;44.20;;;27.75;;
29688;SDS011;16600;47.444;8.334;2022-12-20T07:05:31;44.25;;;28.83;;
29688;SDS011;16600;47.444;8.334;2022-12-20T07:08:13;48.33;;;30.23;;
29688;SDS011;16600;47.444;8.334;2022-12-20T07:10:45;50.97;;;33.13;;
29688;SDS011;16600;47.444;8.334;2022-12-20T07:13:25;68.63;;;38.00;;
29688;SDS011;16600;47.444;8.334;2022-12-20T07:15:56;81.82;;;39.38;;
29688;SDS011;16600;47.444;8.334;2022-12-20T07:18:28;55.95;;;35.80;;
29688;SDS011;16600;47.444;8.334;2022-12-20T07:21:00;51.97;;;33.08;;
29688;SDS011;16600;47.444;8.334;2022-12-20T07:23:32;55.60;;;30.92;;
29688;SDS011;16600;47.444;8.334;2022-12-20T07:26:07;51.28;;;31.77;;
29688;SDS011;16600;47.444;8.334;2022-12-20T07:28:39;45.42;;;30.10;;
29688;SDS011;16600;47.444;8.334;2022-12-20T07:31:15;43.10;;;29.90;;
29688;SDS011;16600;47.444;8.334;2022-12-20T07:33:43;44.15;;;28.15;;
29688;SDS011;16600;47.444;8.334;2022-12-20T07:36:22;46.38;;;30.02;;
29688;SDS011;16600;47.444;8.334;2022-12-20T07:39:02;52.60;;;30.30;;
29688;SDS011;16600;47.444;8.334;2022-12-20T07:41:51;49.88;;;31.00;;
29688;SDS011;16600;47.444;8.334;2022-12-20T07:44:24;53.55;;;31.67;;
29688;SDS011;16600;47.444;8.334;2022-12-20T07:46:57;53.05;;;30.35;;
29688;SDS011;16600;47.444;8.334;2022-12-20T07:49:38;52.80;;;31.50;;
29688;SDS011;16600;47.444;8.334;2022-12-20T07:52:17;39.30;;;27.67;;
29688;SDS011;16600;47.444;8.334;2022-12-20T07:54:58;42.22;;;27.45;;
29688;SDS011;16600;47.444;8.334;2022-12-20T07:57:38;44.00;;;27.63;;
29688;SDS011;16600;47.444;8.334;2022-12-20T08:00:44;38.13;;;24.85;;
29688;SDS011;16600;47.444;8.334;2022-12-20T08:03:18;36.22;;;23.33;;
29688;SDS011;16600;47.444;8.334;2022-12-20T08:05:58;38.63;;;23.98;;
29688;SDS011;16600;47.444;8.334;2022-12-20T08:08:35;36.90;;;21.17;;
29688;SDS011;16600;47.444;8.334;2022-12-20T08:11:42;43.33;;;24.80;;
29688;SDS011;16600;47.444;8.334;2022-12-20T08:14:14;50.15;;;29.95;;
29688;SDS011;16600;47.444;8.334;2022-12-20T08:16:42;41.63;;;26.83;;
29688;SDS011;16600;47.444;8.334;2022-12-20T08:19:16;37.63;;;27.23;;
29688;SDS011;16600;47.444;8.334;2022-12-20T08:22:08;39.17;;;27.75;;
29688;SDS011;16600;47.444;8.334;2022-12-20T08:24:37;36.58;;;23.20;;
29688;SDS011;16600;47.444;8.334;2022-12-20T08:27:14;28.67;;;21.27;;
29688;SDS011;16600;47.444;8.334;2022-12-20T08:29:53;43.47;;;25.33;;
29688;SDS011;16600;47.444;8.334;2022-12-20T08:32:28;55.00;;;32.25;;
29688;SDS011;16600;47.444;8.334;2022-12-20T08:35:12;35.17;;;24.75;;
29688;SDS011;16600;47.444;8.334;2022-12-20T08:37:58;44.10;;;25.27;;
29688;SDS011;16600;47.444;8.334;2022-12-20T08:43:15;30.27;;;22.17;;
29688;SDS011;16600;47.444;8.334;2022-12-20T08:45:43;28.98;;;21.02;;
29688;SDS011;16600;47.444;8.334;2022-12-20T08:48:20;26.67;;;19.48;;
29688;SDS011;16600;47.444;8.334;2022-12-20T08:50:53;32.78;;;20.48;;
29688;SDS011;16600;47.444;8.334;2022-12-20T08:53:26;39.70;;;24.67;;
29688;SDS011;16600;47.444;8.334;2022-12-20T08:56:06;37.72;;;25.60;;
29688;SDS011;16600;47.444;8.334;2022-12-20T08:58:39;40.90;;;26.45;;
29688;SDS011;16600;47.444;8.334;2022-12-20T09:01:23;47.40;;;29.38;;
29688;SDS011;16600;47.444;8.334;2022-12-20T09:04:02;44.80;;;29.35;;
29688;SDS011;16600;47.444;8.334;2022-12-20T09:06:41;45.97;;;28.45;;
29688;SDS011;16600;47.444;8.334;2022-12-20T09:09:31;53.38;;;29.55;;
29688;SDS011;16600;47.444;8.334;2022-12-20T09:12:14;48.63;;;30.10;;
29688;SDS011;16600;47.444;8.334;2022-12-20T09:14:52;49.92;;;30.30;;
29688;SDS011;16600;47.444;8.334;2022-12-20T09:17:29;44.08;;;29.10;;
29688;SDS011;16600;47.444;8.334;2022-12-20T09:20:04;42.38;;;29.73;;
29688;SDS011;16600;47.444;8.334;2022-12-20T09:22:33;45.20;;;30.00;;
29688;SDS011;16600;47.444;8.334;2022-12-20T09:24:59;44.78;;;29.42;;
29688;SDS011;16600;47.444;8.334;2022-12-20T09:27:34;46.10;;;29.75;;
29688;SDS011;16600;47.444;8.334;2022-12-20T09:30:06;43.08;;;30.08;;
29688;SDS011;16600;47.444;8.334;2022-12-20T09:32:39;47.83;;;30.27;;
29688;SDS011;16600;47.444;8.334;2022-12-20T09:35:15;50.80;;;29.13;;
29688;SDS011;16600;47.444;8.334;2022-12-20T09:37:47;53.70;;;33.22;;
29688;SDS011;16600;47.444;8.334;2022-12-20T09:40:37;55.90;;;34.10;;
29688;SDS011;16600;47.444;8.334;2022-12-20T09:43:08;46.58;;;30.20;;
29688;SDS011;16600;47.444;8.334;2022-12-20T09:45:43;48.53;;;31.60;;
29688;SDS011;16600;47.444;8.334;2022-12-20T09:53:21;49.65;;;30.25;;
29688;SDS011;16600;47.444;8.334;2022-12-20T09:56:38;48.88;;;30.48;;
29688;SDS011;16600;47.444;8.334;2022-12-20T10:01:41;41.13;;;28.35;;
29688;SDS011;16600;47.444;8.334;2022-12-20T10:04:36;43.50;;;29.83;;
29688;SDS011;16600;47.444;8.334;2022-12-20T10:13:05;43.20;;;29.02;;
29688;SDS011;16600;47.444;8.334;2022-12-20T10:15:49;59.03;;;32.83;;
29688;SDS011;16600;47.444;8.334;2022-12-20T10:26:50;44.90;;;28.80;;
29688;SDS011;16600;47.444;8.334;2022-12-20T10:29:28;44.80;;;30.15;;
29688;SDS011;16600;47.444;8.334;2022-12-20T10:31:58;44.88;;;30.00;;
29688;SDS011;16600;47.444;8.334;2022-12-20T10:34:36;37.90;;;27.30;;
29688;SDS011;16600;47.444;8.334;2022-12-20T10:37:12;43.78;;;27.77;;
29688;SDS011;16600;47.444;8.334;2022-12-20T10:39:42;42.80;;;29.13;;
29688;SDS011;16600;47.444;8.334;2022-12-20T10:42:29;44.90;;;29.20;;
29688;SDS011;16600;47.444;8.334;2022-12-20T10:47:56;42.33;;;28.48;;
29688;SDS011;16600;47.444;8.334;2022-12-20T10:50:26;47.47;;;28.88;;
29688;SDS011;16600;47.444;8.334;2022-12-20T10:55:42;51.42;;;28.05;;
29688;SDS011;16600;47.444;8.334;2022-12-20T10:58:32;38.90;;;26.45;;
29688;SDS011;16600;47.444;8.334;2022-12-20T11:04:30;36.23;;;25.53;;
29688;SDS011;16600;47.444;8.334;2022-12-20T11:09:57;40.30;;;26.27;;
29688;SDS011;16600;47.444;8.334;2022-12-20T11:18:05;44.75;;;27.30;;
29688;SDS011;16600;47.444;8.334;2022-12-20T11:20:37;47.92;;;26.75;;
29688;SDS011;16600;47.444;8.334;2022-12-20T11:23:38;37.42;;;26.25;;
29688;SDS011;16600;47.444;8.334;2022-12-20T11:29:20;38.15;;;26.70;;
29688;SDS011;16600;47.444;8.334;2022-12-20T11:32:17;46.10;;;26.27;;
29688;SDS011;16600;47.444;8.334;2022-12-20T11:37:35;54.45;;;25.77;;
29688;SDS011;16600;47.444;8.334;2022-12-20T11:53:02;34.05;;;23.58;;
29688;SDS011;16600;47.444;8.334;2022-12-20T11:55:34;31.08;;;23.65;;
29688;SDS011;16600;47.444;8.334;2022-12-20T11:58:05;34.75;;;23.67;;
29688;SDS011;16600;47.444;8.334;2022-12-20T12:03:44;35.08;;;24.85;;
29688;SDS011;16600;47.444;8.334;2022-12-20T12:06:32;33.33;;;23.05;;
29688;SDS011;16600;47.444;8.334;2022-12-20T12:09:13;29.38;;;22.75;;
29688;SDS011;16600;47.444;8.334;2022-12-20T12:15:10;30.15;;;21.30;;
29688;SDS011;16600;47.444;8.334;2022-12-20T12:23:37;28.88;;;21.05;;
29688;SDS011;16600;47.444;8.334;2022-12-20T12:26:11;32.65;;;22.40;;
29688;SDS011;16600;47.444;8.334;2022-12-20T12:28:53;31.70;;;21.75;;
29688;SDS011;16600;47.444;8.334;2022-12-20T12:37:12;35.53;;;22.80;;
29688;SDS011;16600;47.444;8.334;2022-12-20T12:40:02;32.35;;;24.00;;
29688;SDS011;16600;47.444;8.334;2022-12-20T12:45:27;33.75;;;21.02;;
29688;SDS011;16600;47.444;8.334;2022-12-20T12:47:57;27.48;;;20.45;;
29688;SDS011;16600;47.444;8.334;2022-12-20T12:50:29;25.55;;;19.92;;
29688;SDS011;16600;47.444;8.334;2022-12-20T12:53:04;31.17;;;21.00;;
29688;SDS011;16600;47.444;8.334;2022-12-20T12:55:43;28.92;;;20.95;;
29688;SDS011;16600;47.444;8.334;2022-12-20T13:00:53;32.03;;;20.27;;
29688;SDS011;16600;47.444;8.334;2022-12-20T13:11:43;24.85;;;19.55;;
29688;SDS011;16600;47.444;8.334;2022-12-20T13:16:54;27.90;;;19.38;;
29688;SDS011;16600;47.444;8.334;2022-12-20T13:19:50;31.27;;;19.27;;
29688;SDS011;16600;47.444;8.334;2022-12-20T13:22:24;28.85;;;19.30;;
29688;SDS011;16600;47.444;8.334;2022-12-20T13:25:26;30.63;;;18.88;;
29688;SDS011;16600;47.444;8.334;2022-12-20T13:28:07;33.13;;;20.95;;
29688;SDS011;16600;47.444;8.334;2022-12-20T13:33:46;26.23;;;19.10;;
29688;SDS011;16600;47.444;8.334;2022-12-20T13:36:34;22.98;;;16.75;;
29688;SDS011;16600;47.444;8.334;2022-12-20T13:39:28;23.45;;;15.13;;
29688;SDS011;16600;47.444;8.334;2022-12-20T13:42:05;21.95;;;15.95;;
29688;SDS011;16600;47.444;8.334;2022-12-20T13:44:46;21.25;;;15.40;;
29688;SDS011;16600;47.444;8.334;2022-12-20T13:47:36;20.40;;;15.88;;
29688;SDS011;16600;47.444;8.334;2022-12-20T13:50:26;18.30;;;15.40;;
29688;SDS011;16600;47.444;8.334;2022-12-20T13:53:14;20.10;;;14.32;;
29688;SDS011;16600;47.444;8.334;2022-12-20T13:56:00;17.63;;;13.70;;
29688;SDS011;16600;47.444;8.334;2022-12-20T13:58:50;18.35;;;12.80;;
29688;SDS011;16600;47.444;8.334;2022-12-20T14:01:29;19.23;;;11.95;;
29688;SDS011;16600;47.444;8.334;2022-12-20T14:04:02;23.75;;;13.88;;
29688;SDS011;16600;47.444;8.334;2022-12-20T14:06:33;16.98;;;12.88;;
29688;SDS011;16600;47.444;8.334;2022-12-20T14:12:16;17.67;;;11.77;;
29688;SDS011;16600;47.444;8.334;2022-12-20T14:14:52;9.82;;;8.27;;
29688;SDS011;16600;47.444;8.334;2022-12-20T14:22:49;13.98;;;7.72;;
29688;SDS011;16600;47.444;8.334;2022-12-20T14:25:24;19.83;;;9.15;;
29688;SDS011;16600;47.444;8.334;2022-12-20T14:30:44;15.40;;;8.98;;
29688;SDS011;16600;47.444;8.334;2022-12-20T14:33:46;9.38;;;6.53;;
29688;SDS011;16600;47.444;8.334;2022-12-20T14:44:43;10.60;;;8.77;;
29688;SDS011;16600;47.444;8.334;2022-12-20T14:47:19;12.05;;;8.15;;
29688;SDS011;16600;47.444;8.334;2022-12-20T14:49:53;6.95;;;5.63;;
29688;SDS011;16600;47.444;8.334;2022-12-20T14:52:47;5.78;;;5.13;;
29688;SDS011;16600;47.444;8.334;2022-12-20T14:55:24;7.22;;;4.75;;
29688;SDS011;16600;47.444;8.334;2022-12-20T15:01:17;12.30;;;6.88;;
29688;SDS011;16600;47.444;8.334;2022-12-20T15:03:53;8.23;;;5.82;;
29688;SDS011;16600;47.444;8.334;2022-12-20T15:06:40;8.45;;;6.68;;
29688;SDS011;16600;47.444;8.334;2022-12-20T15:09:15;9.48;;;6.80;;
29688;SDS011;16600;47.444;8.334;2022-12-20T15:11:41;9.57;;;6.65;;
29688;SDS011;16600;47.444;8.334;2022-12-20T15:14:32;11.18;;;7.20;;
29688;SDS011;16600;47.444;8.334;2022-12-20T15:17:09;8.50;;;7.10;;
29688;SDS011;16600;47.444;8.334;2022-12-20T15:19:42;7.72;;;5.20;;
29688;SDS011;16600;47.444;8.334;2022-12-20T15:22:17;10.90;;;5.97;;
29688;SDS011;16600;47.444;8.334;2022-12-20T15:24:45;6.72;;;4.78;;
29688;SDS011;16600;47.444;8.334;2022-12-20T15:27:33;17.20;;;5.28;;
29688;SDS011;16600;47.444;8.334;2022-12-20T15:30:05;6.35;;;4.57;;
29688;SDS011;16600;47.444;8.334;2022-12-20T15:32:54;6.60;;;5.22;;
29688;SDS011;16600;47.444;8.334;2022-12-20T15:35:28;6.43;;;4.35;;
29688;SDS011;16600;47.444;8.334;2022-12-20T15:37:56;7.43;;;4.90;;
29688;SDS011;16600;47.444;8.334;2022-12-20T15:40:34;4.90;;;4.40;;
29688;SDS011;16600;47.444;8.334;2022-12-20T15:43:14;9.23;;;6.00;;
29688;SDS011;16600;47.444;8.334;2022-12-20T15:45:51;12.50;;;7.63;;
29688;SDS011;16600;47.444;8.334;2022-12-20T15:48:32;10.82;;;7.38;;
29688;SDS011;16600;47.444;8.334;2022-12-20T15:51:01;8.73;;;7.82;;
29688;SDS011;16600;47.444;8.334;2022-12-20T15:53:48;11.57;;;7.55;;
29688;SDS011;16600;47.444;8.334;2022-12-20T15:56:36;8.18;;;5.85;;
29688;SDS011;16600;47.444;8.334;2022-12-20T15:59:08;8.43;;;5.38;;
29688;SDS011;16600;47.444;8.334;2022-12-20T16:01:47;7.32;;;4.60;;
29688;SDS011;16600;47.444;8.334;2022-12-20T16:04:25;8.68;;;6.43;;
29688;SDS011;16600;47.444;8.334;2022-12-20T16:07:04;7.88;;;4.90;;
29688;SDS011;16600;47.444;8.334;2022-12-20T16:09:34;9.20;;;6.97;;
29688;SDS011;16600;47.444;8.334;2022-12-20T16:12:11;8.90;;;6.60;;
29688;SDS011;16600;47.444;8.334;2022-12-20T16:14:40;11.10;;;6.10;;
29688;SDS011;16600;47.444;8.334;2022-12-20T16:17:26;11.90;;;5.57;;
29688;SDS011;16600;47.444;8.334;2022-12-20T16:19:55;7.38;;;6.30;;
29688;SDS011;16600;47.444;8.334;2022-12-20T16:22:46;10.35;;;4.55;;
29688;SDS011;16600;47.444;8.334;2022-12-20T16:25:37;5.68;;;4.45;;
29688;SDS011;16600;47.444;8.334;2022-12-20T16:30:42;8.32;;;5.32;;
29688;SDS011;16600;47.444;8.334;2022-12-20T16:33:17;7.45;;;6.70;;
29688;SDS011;16600;47.444;8.334;2022-12-20T16:35:50;13.70;;;8.45;;
29688;SDS011;16600;47.444;8.334;2022-12-20T16:38:28;14.82;;;9.82;;
29688;SDS011;16600;47.444;8.334;2022-12-20T16:41:08;21.77;;;16.15;;
29688;SDS011;16600;47.444;8.334;2022-12-20T16:43:46;44.65;;;35.63;;
29688;SDS011;16600;47.444;8.334;2022-12-20T16:49:09;34.35;;;27.50;;
29688;SDS011;16600;47.444;8.334;2022-12-20T16:51:48;19.77;;;10.32;;
29688;SDS011;16600;47.444;8.334;2022-12-20T16:54:38;11.05;;;7.13;;
29688;SDS011;16600;47.444;8.334;2022-12-20T16:57:09;11.35;;;8.25;;
29688;SDS011;16600;47.444;8.334;2022-12-20T16:59:45;10.23;;;7.90;;
29688;SDS011;16600;47.444;8.334;2022-12-20T17:03:05;15.60;;;8.53;;
29688;SDS011;16600;47.444;8.334;2022-12-20T17:05:40;12.82;;;8.82;;
29688;SDS011;16600;47.444;8.334;2022-12-20T17:08:36;21.77;;;11.60;;
29688;SDS011;16600;47.444;8.334;2022-12-20T17:11:21;14.35;;;11.23;;
29688;SDS011;16600;47.444;8.334;2022-12-20T17:13:57;14.48;;;8.57;;
29688;SDS011;16600;47.444;8.334;2022-12-20T17:16:46;14.25;;;8.27;;
29688;SDS011;16600;47.444;8.334;2022-12-20T17:19:19;10.57;;;8.43;;
29688;SDS011;16600;47.444;8.334;2022-12-20T17:21:50;17.92;;;12.23;;
29688;SDS011;16600;47.444;8.334;2022-12-20T17:24:33;20.38;;;14.70;;
29688;SDS011;16600;47.444;8.334;2022-12-20T17:27:04;21.73;;;17.60;;
29688;SDS011;16600;47.444;8.334;2022-12-20T17:29:46;21.95;;;16.52;;
29688;SDS011;16600;47.444;8.334;2022-12-20T17:32:29;39.63;;;25.60;;
29688;SDS011;16600;47.444;8.334;2022-12-20T17:35:01;21.20;;;14.80;;
29688;SDS011;16600;47.444;8.334;2022-12-20T17:40:41;16.10;;;11.73;;
29688;SDS011;16600;47.444;8.334;2022-12-20T17:43:35;14.68;;;10.55;;
29688;SDS011;16600;47.444;8.334;2022-12-20T17:46:26;17.33;;;10.80;;
29688;SDS011;16600;47.444;8.334;2022-12-20T17:49:12;14.10;;;9.95;;
29688;SDS011;16600;47.444;8.334;2022-12-20T17:54:41;12.73;;;9.15;;
29688;SDS011;16600;47.444;8.334;2022-12-20T17:57:12;15.35;;;10.45;;
29688;SDS011;16600;47.444;8.334;2022-12-20T18:02:53;18.05;;;11.30;;
29688;SDS011;16600;47.444;8.334;2022-12-20T18:08:28;20.60;;;14.88;;
29688;SDS011;16600;47.444;8.334;2022-12-20T18:11:12;19.33;;;14.55;;